M I D A S
Marine Information and Data Acquisition System
Tripno 842 of the Zeeleeuw from 2005-01-26 07:33:00 to 2005-01-26 13:04:23
Back to CruiseResearch ActivitiesStationsMapUnderway DataData graphs

EquipmentUnitsComment
TimeDGPSUTC
LatitudeDGPSDM.mWGS84
LongitudeDGPSDM.mWGS84
HeadingGyrodeg 
SOGDGPSknotsSpeed over ground
COGDGPSdegCourse over ground
DepthEcho soundermeters200 kHz
Missing or incorrect values are displayed as -999
Navigation data collected by the RV Zeeleeuw from 2005-01-26 07:33:28 to 2005-01-26 13:19:32
Time Latitude Longitude Heading SOG COG Depth
2005-01-26 07:34:32 51°13.61 2°56.045 119.7 3 293 -999
2005-01-26 07:35:32 51°13.639 2°55.972 132.4 1.7 307 8.9
2005-01-26 07:36:33 51°13.642 2°55.968 127.8 0.7 143 8.2
2005-01-26 07:37:33 51°13.669 2°55.91 131.2 4.6 310 -999
2005-01-26 07:38:33 51°13.711 2°55.784 106.6 5.4 286 -999
2005-01-26 07:39:32 51°13.722 2°55.723 58.4 1.8 38 9.9
2005-01-26 07:40:33 51°13.729 2°55.727 4.6 0.8 201 -999
2005-01-26 07:41:33 51°13.785 2°55.67 329.5 6.3 325 9.1
2005-01-26 07:42:33 51°13.899 2°55.573 339.5 8.3 335 9.2
2005-01-26 07:43:32 51°14.031 2°55.48 341 8.8 337 8.6
2005-01-26 07:44:33 51°14.175 2°55.369 336.4 10 331 8.9
2005-01-26 07:45:32 51°14.3 2°55.19 318.4 10.4 312 9.1
2005-01-26 07:46:33 51°14.4 2°54.956 304.1 10.9 297 9.4
2005-01-26 07:47:33 51°14.455 2°54.649 287.9 12.7 281 9.2
2005-01-26 07:48:33 51°14.423 2°54.283 259.3 14.2 255 8.1
2005-01-26 07:49:33 51°14.307 2°53.951 238.4 14.7 233 7.9
2005-01-26 07:50:33 51°14.185 2°53.618 248.9 14.7 246 7.8
2005-01-26 07:51:33 51°14.061 2°53.279 242.6 15 242 8.3
2005-01-26 07:52:33 51°13.944 2°52.926 241.7 15.2 240 8.7
2005-01-26 07:53:32 51°13.812 2°52.58 242.4 15.9 237 8.7
2005-01-26 07:54:33 51°13.684 2°52.226 246.7 15.5 238 8.9
2005-01-26 07:55:33 51°13.566 2°51.866 244.9 15.5 242 9
2005-01-26 07:56:33 51°13.446 2°51.506 246 15.3 242 9.4
2005-01-26 07:57:33 51°13.323 2°51.15 244.8 15.4 241 9.5
2005-01-26 07:58:33 51°13.186 2°50.801 239.9 15.8 238 9.7
2005-01-26 07:59:33 51°13.058 2°50.435 246.1 16 245 9.7
2005-01-26 08:00:32 51°12.933 2°50.074 241.3 15.7 236 9.9
2005-01-26 08:01:33 51°12.796 2°49.71 245.2 15.6 242 10.1
2005-01-26 08:02:32 51°12.672 2°49.351 245.9 15.9 239 10.4
2005-01-26 08:03:32 51°12.541 2°48.99 244.5 15.8 238 10.4
2005-01-26 08:04:32 51°12.41 2°48.625 245.3 16 239 10.3
2005-01-26 08:05:33 51°12.276 2°48.26 244.2 16 239 10.5
2005-01-26 08:06:32 51°12.15 2°47.895 244.2 15.7 242 10.5
2005-01-26 08:07:33 51°12.021 2°47.527 248.2 15.5 243 10.5
2005-01-26 08:08:33 51°11.896 2°47.16 246.8 15.5 243 10.3
2005-01-26 08:09:32 51°11.781 2°46.803 247 15.4 242 10.4
2005-01-26 08:10:33 51°11.661 2°46.44 249.2 15.2 243 10.4
2005-01-26 08:11:33 51°11.544 2°46.081 244.2 15.6 241 10.2
2005-01-26 08:12:32 51°11.436 2°45.722 254 15.1 250 10
2005-01-26 08:13:33 51°11.349 2°45.336 256.9 15.1 255 10
2005-01-26 08:14:32 51°11.284 2°44.954 262 15.5 255 10.2
2005-01-26 08:15:33 51°11.221 2°44.555 262.9 15.2 257 10.5
2005-01-26 08:16:33 51°11.154 2°44.15 261.3 16.3 252 10.7
2005-01-26 08:17:33 51°11.085 2°43.744 263.7 15.7 255 10.7
2005-01-26 08:18:33 51°11.012 2°43.338 261 15.8 256 10.9
2005-01-26 08:19:32 51°10.94 2°42.939 258.7 15.6 255 10.8
2005-01-26 08:20:32 51°10.867 2°42.534 262.9 16.1 257 10.9
2005-01-26 08:21:33 51°10.799 2°42.121 261 15.7 255 11
2005-01-26 08:22:33 51°10.725 2°41.711 262.2 16.4 254 11
2005-01-26 08:23:32 51°10.657 2°41.304 261.7 15.6 253 11.1
2005-01-26 08:24:32 51°10.589 2°40.897 259 15.9 252 11.3
2005-01-26 08:25:33 51°10.524 2°40.49 260.5 15.5 253 11.8
2005-01-26 08:26:33 51°10.453 2°40.096 258.6 15.6 251 12.2
2005-01-26 08:27:32 51°10.39 2°39.709 262.3 15.3 259 12.9
2005-01-26 08:28:33 51°10.327 2°39.305 259.8 15.6 259 13.8
2005-01-26 08:29:33 51°10.265 2°38.912 262.6 14.8 253 14.4
2005-01-26 08:30:33 51°10.206 2°38.515 262.2 15 258 14.4
2005-01-26 08:31:33 51°10.143 2°38.119 261.1 15.7 257 15.5
2005-01-26 08:32:32 51°10.083 2°37.728 261.4 15.3 256 16.4
2005-01-26 08:33:33 51°10.027 2°37.323 261.6 15.4 258 16.7
2005-01-26 08:34:33 51°9.97 2°36.929 259.6 15.6 255 16.9
2005-01-26 08:35:32 51°9.914 2°36.539 263.7 15.1 262 16.9
2005-01-26 08:36:32 51°9.873 2°36.14 267.5 15.5 260 17
2005-01-26 08:37:33 51°9.936 2°35.784 318 13.8 310 17.1
2005-01-26 08:38:32 51°10.128 2°35.722 19.7 12.2 4 11.5
2005-01-26 08:39:32 51°10.278 2°35.908 49.2 11.7 45 9.3
2005-01-26 08:40:32 51°10.429 2°36.107 42 11.6 38 9.5
2005-01-26 08:41:32 51°10.587 2°36.285 39.8 11.8 35 9.4
2005-01-26 08:42:32 51°10.744 2°36.454 37.4 11.7 30 10.2
2005-01-26 08:43:33 51°10.912 2°36.613 36.1 11.5 30 10.5
2005-01-26 08:44:33 51°11.077 2°36.769 37 11.5 30 11.5
2005-01-26 08:45:33 51°11.236 2°36.927 37.1 11.4 32 12.3
2005-01-26 08:46:32 51°11.398 2°37.082 36.6 11.7 32 12.6
2005-01-26 08:47:32 51°11.566 2°37.242 35.9 11.6 30 12.4
2005-01-26 08:48:32 51°11.73 2°37.402 36.4 11.5 32 12.6
2005-01-26 08:49:32 51°11.897 2°37.563 36.8 11.8 31 12.7
2005-01-26 08:50:33 51°12.063 2°37.727 38.1 11.6 32 12.6
2005-01-26 08:51:33 51°12.228 2°37.89 37 11.6 31 12.3
2005-01-26 08:52:33 51°12.393 2°38.048 37.3 11.6 32 12.4
2005-01-26 08:53:32 51°12.554 2°38.205 36.5 11.6 32 12.3
2005-01-26 08:54:33 51°12.728 2°38.349 33.6 11.4 26 12.5
2005-01-26 08:55:32 51°12.897 2°38.487 33.5 11.7 26 12.8
2005-01-26 08:56:32 51°13.08 2°38.599 27.2 11.8 19 13.1
2005-01-26 08:57:32 51°13.264 2°38.698 27.2 11.8 20 13.5
2005-01-26 08:58:33 51°13.453 2°38.798 25.3 12 18 13.4
2005-01-26 08:59:33 51°13.64 2°38.892 24.7 11.8 16 13.6
2005-01-26 09:00:33 51°13.835 2°38.875 6 12.2 357 12.9
2005-01-26 09:01:33 51°14.036 2°38.843 356.5 12.2 350 11.3
2005-01-26 09:02:33 51°14.196 2°38.639 318.3 13.4 307 14.8
2005-01-26 09:03:32 51°14.206 2°38.277 259.8 14.5 258 17.6
2005-01-26 09:04:33 51°14.111 2°37.903 252.3 15.1 244 18.6
2005-01-26 09:05:32 51°14.026 2°37.528 250.7 14.9 245 19.9
2005-01-26 09:06:33 51°13.918 2°37.16 247.4 15.1 246 20
2005-01-26 09:07:33 51°13.816 2°36.79 249.3 16 252 19.8
2005-01-26 09:08:33 51°13.709 2°36.417 249.4 15.1 249 18.8
2005-01-26 09:09:33 51°13.611 2°36.036 255.3 15.2 252 18.9
2005-01-26 09:10:33 51°13.495 2°35.679 244.5 15.2 240 17
2005-01-26 09:11:32 51°13.382 2°35.326 243.8 15.5 237 17
2005-01-26 09:12:33 51°13.266 2°34.967 244.9 15.8 244 16.5
2005-01-26 09:13:33 51°13.146 2°34.616 244.9 14.9 239 16.8
2005-01-26 09:14:33 51°13.034 2°34.254 249.6 15.6 243 15.6
2005-01-26 09:15:33 51°12.906 2°33.915 243.3 14.6 242 15.3
2005-01-26 09:16:33 51°12.762 2°33.58 242.4 15.7 243 14.9
2005-01-26 09:17:33 51°12.622 2°33.255 244.1 14.2 233 14.5
2005-01-26 09:18:33 51°12.492 2°32.917 246.7 16.5 248 14.3
2005-01-26 09:19:33 51°12.374 2°32.564 252.5 16.4 244 15.9
2005-01-26 09:20:33 51°12.267 2°32.209 249.8 14.3 245 16.8
2005-01-26 09:21:33 51°12.159 2°31.85 251 15 244 18.1
2005-01-26 09:22:33 51°12.065 2°31.471 253.1 15.5 248 20.5
2005-01-26 09:23:32 51°11.973 2°31.097 252.5 15.6 245 21.2
2005-01-26 09:24:33 51°11.875 2°30.711 255.4 15.2 245 22.1
2005-01-26 09:25:33 51°11.783 2°30.329 255.5 15.7 252 22.5
2005-01-26 09:26:33 51°11.685 2°29.951 254 15.5 245 22.8
2005-01-26 09:27:33 51°11.59 2°29.565 255.4 16.5 243 23.2
2005-01-26 09:28:32 51°11.495 2°29.19 255.7 15.2 249 24.3
2005-01-26 09:29:33 51°11.401 2°28.797 252.2 15.2 247 23.1
2005-01-26 09:30:33 51°11.309 2°28.404 252.3 16 250 22.1
2005-01-26 09:31:33 51°11.241 2°28.003 262.6 15.9 259 21.6
2005-01-26 09:32:33 51°11.18 2°27.601 260.3 15.5 258 20.2
2005-01-26 09:33:33 51°11.116 2°27.205 261.1 15.4 256 22.3
2005-01-26 09:34:33 51°11.053 2°26.816 261.1 15.3 256 22.3
2005-01-26 09:35:33 51°10.988 2°26.426 257.1 15 255 20.7
2005-01-26 09:36:33 51°10.925 2°26.042 260.5 14.9 260 18.5
2005-01-26 09:37:33 51°10.91 2°25.655 277.6 14.8 273 15.7
2005-01-26 09:38:33 51°10.986 2°25.311 308.3 13.3 305 15.5
2005-01-26 09:39:32 51°11.171 2°25.174 1.4 12.4 355 23.8
2005-01-26 09:40:32 51°11.365 2°25.258 31 11.9 26 23.1
2005-01-26 09:41:33 51°11.539 2°25.41 36.7 11.8 29 23.5
2005-01-26 09:42:33 51°11.71 2°25.563 37.3 11.7 31 25.5
2005-01-26 09:43:33 51°11.877 2°25.732 38.6 11.6 33 24.2
2005-01-26 09:44:32 51°12.038 2°25.894 39.8 11.8 34 24.8
2005-01-26 09:45:33 51°12.205 2°26.078 41.5 12.1 35 25
2005-01-26 09:46:33 51°12.369 2°26.259 40.9 12 34 25.8
2005-01-26 09:47:32 51°12.526 2°26.451 44.7 12.2 39 25.7
2005-01-26 09:48:33 51°12.682 2°26.65 44.2 11.5 36 25.4
2005-01-26 09:49:32 51°12.827 2°26.836 44.2 11.7 39 24.9
2005-01-26 09:50:33 51°12.981 2°27.03 44.6 12 38 25
2005-01-26 09:51:32 51°13.131 2°27.225 44.9 11.8 39 25.1
2005-01-26 09:52:33 51°13.286 2°27.425 44.9 11.8 40 25.3
2005-01-26 09:53:33 51°13.434 2°27.615 43.7 11.9 38 24.9
2005-01-26 09:54:33 51°13.591 2°27.81 43.7 11.7 38 25.1
2005-01-26 09:55:32 51°13.74 2°28.002 44.1 11.5 38 25.9
2005-01-26 09:56:33 51°13.89 2°28.197 44.4 11.4 39 26.1
2005-01-26 09:57:33 51°14.038 2°28.385 44 11.2 37 26.5
2005-01-26 09:58:32 51°14.19 2°28.577 44.4 11.9 40 26.7
2005-01-26 09:59:33 51°14.345 2°28.77 44.3 11.4 39 27.6
2005-01-26 10:00:32 51°14.494 2°28.96 44.3 11.7 38 28.1
2005-01-26 10:01:33 51°14.651 2°29.158 44 12 39 28.1
2005-01-26 10:02:32 51°14.802 2°29.353 44.4 11.6 39 53.2
2005-01-26 10:03:33 51°14.957 2°29.548 44.2 11.9 39 28.8
2005-01-26 10:04:33 51°15.108 2°29.743 44.2 12 39 28.6
2005-01-26 10:05:32 51°15.257 2°29.942 45.4 11.7 41 28.2
2005-01-26 10:06:33 51°15.41 2°30.144 44.5 11.9 40 28.4
2005-01-26 10:07:32 51°15.556 2°30.337 44.7 10.7 39 28.2
2005-01-26 10:08:32 51°15.705 2°30.533 43.7 11.9 40 29.2
2005-01-26 10:09:33 51°15.86 2°30.737 44.7 11.9 40 29
2005-01-26 10:10:32 51°16.006 2°30.936 44.8 12 41 29.4
2005-01-26 10:11:32 51°16.161 2°31.141 43.7 12.3 39 29.1
2005-01-26 10:12:33 51°16.313 2°31.346 44.2 12.1 40 28.7
2005-01-26 10:13:33 51°16.466 2°31.549 44.2 11.4 40 28.6
2005-01-26 10:14:33 51°16.616 2°31.753 44.6 11.6 40 28.1
2005-01-26 10:15:33 51°16.77 2°31.956 41.5 12 37 27.5
2005-01-26 10:16:33 51°16.931 2°32.144 40.1 12 36 27.8
2005-01-26 10:17:33 51°17.091 2°32.335 41.9 11.9 38 27.2
2005-01-26 10:18:33 51°17.248 2°32.524 40.7 11.7 36 27
2005-01-26 10:19:33 51°17.398 2°32.703 40 11.6 35 28.2
2005-01-26 10:20:33 51°17.551 2°32.887 40.8 11.3 37 28.2
2005-01-26 10:21:32 51°17.711 2°33.077 41.3 12.4 37 26.7
2005-01-26 10:22:33 51°17.874 2°33.273 40.6 12.2 37 27
2005-01-26 10:23:32 51°18.031 2°33.467 40.3 11.9 37 25.5
2005-01-26 10:24:33 51°18.195 2°33.664 40.9 12.6 38 25
2005-01-26 10:25:33 51°18.353 2°33.861 40.9 12.4 37 23.2
2005-01-26 10:26:32 51°18.503 2°34.044 40.7 11.2 38 20
2005-01-26 10:27:32 51°18.657 2°34.233 41.9 11.9 37 21.3
2005-01-26 10:28:33 51°18.812 2°34.424 40.5 11.7 36 20.9
2005-01-26 10:29:33 51°18.966 2°34.614 40.6 11.9 37 20.5
2005-01-26 10:30:33 51°19.125 2°34.804 41.2 12.2 38 19.4
2005-01-26 10:31:32 51°19.278 2°34.992 41.6 11.8 38 20
2005-01-26 10:32:33 51°19.437 2°35.184 40.8 11.8 38 19.3
2005-01-26 10:33:33 51°19.593 2°35.376 40.9 11.4 37 20.2
2005-01-26 10:34:33 51°19.747 2°35.566 41.5 11.5 38 19
2005-01-26 10:35:33 51°19.902 2°35.768 45.8 12 41 19.1
2005-01-26 10:36:33 51°20.005 2°36.039 68 12.3 68 21.3
2005-01-26 10:37:33 51°20.083 2°36.346 66.3 12.6 65 22.5
2005-01-26 10:38:33 51°20.17 2°36.65 67 12.6 66 23.5
2005-01-26 10:39:32 51°20.253 2°36.945 65.6 12 66 -999
2005-01-26 10:40:33 51°20.341 2°37.245 65.7 12.5 64 22.9
2005-01-26 10:41:33 51°20.43 2°37.545 65.1 12.7 63 23.1
2005-01-26 10:42:32 51°20.478 2°37.869 83.5 12.3 86 23.4
2005-01-26 10:43:32 51°20.475 2°38.21 92.6 13 93 25
2005-01-26 10:44:32 51°20.456 2°38.55 92.9 12.9 95 25.2
2005-01-26 10:45:32 51°20.436 2°38.89 94.7 13.1 98 25.4
2005-01-26 10:46:32 51°20.42 2°39.232 92.8 13.1 93 25.8
2005-01-26 10:47:32 51°20.415 2°39.572 87.8 12.5 88 26.9
2005-01-26 10:48:32 51°20.416 2°39.912 89.6 13 88 29.2
2005-01-26 10:49:32 51°20.413 2°40.259 91.2 13 91 28.8
2005-01-26 10:50:33 51°20.4 2°40.606 91.6 12.9 97 29.7
2005-01-26 10:51:32 51°20.389 2°40.944 93.9 13 95 29.7
2005-01-26 10:52:33 51°20.375 2°41.295 94.5 13 94 22.1
2005-01-26 10:53:33 51°20.355 2°41.635 94.3 12.8 101 22.3
2005-01-26 10:54:32 51°20.339 2°41.977 92.9 13.2 94 17.5
2005-01-26 10:55:33 51°20.316 2°42.33 96.4 13.1 95 21.7
2005-01-26 10:56:33 51°20.297 2°42.678 96.8 13.4 97 24.7
2005-01-26 10:57:33 51°20.277 2°43.026 95.8 13.3 97 27.3
2005-01-26 10:58:33 51°20.256 2°43.373 94.8 13.2 94 27.9
2005-01-26 10:59:32 51°20.235 2°43.712 94.5 13.2 98 28.1
2005-01-26 11:00:32 51°20.213 2°44.057 95.5 13 95 27.8
2005-01-26 11:01:32 51°20.193 2°44.404 95.7 13.2 97 26
2005-01-26 11:02:33 51°20.175 2°44.756 95 13.3 94 26
2005-01-26 11:03:33 51°20.16 2°45.105 95.4 13.4 96 25.1
2005-01-26 11:04:32 51°20.142 2°45.454 95.5 13.5 94 23.3
2005-01-26 11:05:33 51°20.124 2°45.814 94.6 13.3 94 17.4
2005-01-26 11:06:32 51°20.107 2°46.162 95 13.4 96 16.5
2005-01-26 11:07:33 51°20.087 2°46.522 95.2 13.4 95 15.3
2005-01-26 11:08:33 51°20.036 2°46.865 112.5 13.6 109 17.8
2005-01-26 11:09:33 51°19.947 2°47.196 111.7 13.6 114 22.4
2005-01-26 11:10:33 51°19.857 2°47.532 111.7 13.7 107 23.5
2005-01-26 11:11:33 51°19.771 2°47.862 111.7 13.3 114 23.7
2005-01-26 11:12:33 51°19.663 2°48.18 120.4 13.5 127 23.3
2005-01-26 11:13:33 51°19.531 2°48.48 127 13.9 128 20.9
2005-01-26 11:14:33 51°19.398 2°48.778 126.2 14.1 123 18.3
2005-01-26 11:15:33 51°19.273 2°49.085 124.2 13.6 131 15
2005-01-26 11:16:33 51°19.146 2°49.392 125.9 13.4 127 14.4
2005-01-26 11:17:33 51°19.017 2°49.698 127.2 13.7 124 12.1
2005-01-26 11:18:33 51°18.866 2°49.987 131.4 14.3 129 13.6
2005-01-26 11:19:33 51°18.684 2°50.225 146.4 14.4 142 15.4
2005-01-26 11:20:33 51°18.5 2°50.446 139.9 12.8 144 15.9
2005-01-26 11:21:33 51°18.317 2°50.684 140.7 14.3 146 15.3
2005-01-26 11:22:33 51°18.132 2°50.922 139.3 13.9 145 14.2
2005-01-26 11:23:33 51°17.95 2°51.16 144.7 14.5 145 12.6
2005-01-26 11:24:33 51°17.768 2°51.395 145.1 13.5 139 11.3
2005-01-26 11:25:33 51°17.585 2°51.635 144.5 14 144 11.2
2005-01-26 11:26:33 51°17.414 2°51.891 136.7 14.3 139 11.9
2005-01-26 11:27:33 51°17.24 2°52.147 142.2 14.7 138 12
2005-01-26 11:28:33 51°17.063 2°52.392 141 13.8 140 11.3
2005-01-26 11:29:33 51°16.907 2°52.671 134.6 15 128 11.1
2005-01-26 11:30:33 51°16.788 2°52.989 119.9 14.7 115 11.8
2005-01-26 11:31:33 51°16.739 2°53.345 98.9 13.9 92 13.1
2005-01-26 11:32:33 51°16.769 2°53.705 78.6 13.7 75 13.1
2005-01-26 11:33:33 51°16.843 2°54.046 66.7 13.6 65 13.3
2005-01-26 11:34:33 51°16.94 2°54.375 67.6 13.7 66 13
2005-01-26 11:35:33 51°17.036 2°54.705 68 13.9 66 12.9
2005-01-26 11:36:33 51°17.128 2°55.039 68.9 13.8 66 12.5
2005-01-26 11:37:33 51°17.222 2°55.377 68.9 13.7 66 12.6
2005-01-26 11:38:33 51°17.314 2°55.714 69 13.8 66 12.1
2005-01-26 11:39:33 51°17.413 2°56.047 66.8 13.8 65 12.6
2005-01-26 11:40:33 51°17.513 2°56.381 67.3 14 64 12.2
2005-01-26 11:41:33 51°17.619 2°56.717 63.6 14.2 62 12.2
2005-01-26 11:42:32 51°17.73 2°57.041 64.4 14.2 63 12.4
2005-01-26 11:43:33 51°17.843 2°57.374 64.5 14.2 62 13.2
2005-01-26 11:44:33 51°17.958 2°57.706 64 14.3 62 12.1
2005-01-26 11:45:33 51°18.07 2°58.038 64.4 14.2 61 11.8
2005-01-26 11:46:32 51°18.179 2°58.366 64.4 14.3 62 11.3
2005-01-26 11:47:33 51°18.293 2°58.705 64.2 14.3 62 10.7
2005-01-26 11:48:32 51°18.395 2°59.047 67.8 14.5 67 10.5
2005-01-26 11:49:33 51°18.489 2°59.405 69.4 14.5 66 10.2
2005-01-26 11:50:33 51°18.574 2°59.762 74.8 14.5 72 9.9
2005-01-26 11:51:33 51°18.641 3°0.135 80.1 14.6 78 10
2005-01-26 11:52:33 51°18.668 3°0.512 89.2 14.3 87 10
2005-01-26 11:53:33 51°18.679 3°0.9 91.8 14.5 88 9.7
2005-01-26 11:54:33 51°18.69 3°1.287 91.5 14.6 88 9.8
2005-01-26 11:55:32 51°18.706 3°1.667 86.4 14.5 82 9.8
2005-01-26 11:56:32 51°18.768 3°2.041 72.5 14.6 69 9.7
2005-01-26 11:57:33 51°18.888 3°2.386 61.6 14.6 59 9.6
2005-01-26 11:58:33 51°19.01 3°2.72 61.9 14.8 59 9.6
2005-01-26 11:59:32 51°19.106 3°3.067 82.8 14.4 84 9.6
2005-01-26 12:00:33 51°18.999 3°3.399 133.5 14 129 9.9
2005-01-26 12:01:33 51°18.802 3°3.47 196.7 12.4 199 10.2
2005-01-26 12:02:33 51°18.64 3°3.268 229.3 13.3 222 10.7
2005-01-26 12:03:33 51°18.518 3°3.004 238.7 12.6 234 10.5
2005-01-26 12:04:33 51°18.397 3°2.736 237.5 12.1 236 10.8
2005-01-26 12:05:33 51°18.277 3°2.472 238 12.3 231 10.8
2005-01-26 12:06:33 51°18.157 3°2.213 238 12.3 233 10.9
2005-01-26 12:07:33 51°18.052 3°1.936 242.5 12.2 235 11.1
2005-01-26 12:08:33 51°17.943 3°1.663 240.2 12.3 237 11.4
2005-01-26 12:09:33 51°17.843 3°1.383 245.2 12 242 10.7
2005-01-26 12:10:33 51°17.741 3°1.107 242.1 12.2 237 11.5
2005-01-26 12:11:33 51°17.632 3°0.834 240.9 11.6 234 11.5
2005-01-26 12:12:33 51°17.531 3°0.562 243.2 12.1 244 11.4
2005-01-26 12:13:33 51°17.433 3°0.283 242.7 12 246 11.5
2005-01-26 12:14:33 51°17.334 3°0.002 243.8 12.1 235 11.6
2005-01-26 12:15:33 51°17.233 2°59.73 242.2 12 237 11.8
2005-01-26 12:16:33 51°17.134 2°59.453 243.1 12.1 238 11.5
2005-01-26 12:17:33 51°17.031 2°59.176 242.3 12.3 237 11.8
2005-01-26 12:18:33 51°16.928 2°58.9 243 12.2 239 11.5
2005-01-26 12:19:33 51°16.824 2°58.629 244 12.2 241 11.7
2005-01-26 12:20:33 51°16.73 2°58.352 244.6 11.8 240 11.8
2005-01-26 12:21:33 51°16.636 2°58.07 246.7 12.1 242 11.6
2005-01-26 12:22:33 51°16.543 2°57.793 244.5 11.8 239 12
2005-01-26 12:23:33 51°16.446 2°57.515 245 12.2 245 11.8
2005-01-26 12:24:33 51°16.352 2°57.235 244.5 12 244 11.9
2005-01-26 12:25:33 51°16.257 2°56.953 245.9 12.3 245 11.8
2005-01-26 12:26:32 51°16.163 2°56.673 244.7 12.1 235 11.8
2005-01-26 12:27:33 51°16.069 2°56.392 246.1 10.7 243 11.8
2005-01-26 12:28:34 51°16.047 2°56.232 275.4 4.2 278 12.1
2005-01-26 12:29:33 51°16.069 2°56.188 310.4 1.2 358 12.3
2005-01-26 12:30:33 51°16.081 2°56.2 328.5 0.9 39 12.3
2005-01-26 12:31:33 51°16.09 2°56.215 328.7 0.6 45 12.4
2005-01-26 12:32:33 51°16.096 2°56.232 322.1 0.8 57 12.3
2005-01-26 12:33:33 51°16.099 2°56.251 312.5 1.1 70 12.2
2005-01-26 12:34:33 51°16.101 2°56.274 301.9 0.9 80 12.6
2005-01-26 12:35:33 51°16.104 2°56.297 298 0.9 86 12.4
2005-01-26 12:36:34 51°16.107 2°56.319 300.6 0.9 74 12.4
2005-01-26 12:37:34 51°16.111 2°56.341 301.2 0.8 70 12.4
2005-01-26 12:38:34 51°16.116 2°56.363 304 1.1 62 12.4
2005-01-26 12:39:33 51°16.121 2°56.382 307.2 0.8 64 12.2
2005-01-26 12:40:33 51°16.128 2°56.401 312.6 0.9 64 12.4
2005-01-26 12:41:33 51°16.134 2°56.421 313.9 0.9 57 12.5
2005-01-26 12:42:33 51°16.139 2°56.442 312.8 0.9 68 12.4
2005-01-26 12:43:33 51°16.144 2°56.462 311.1 0.9 68 12.1
2005-01-26 12:44:34 51°16.148 2°56.484 305.7 0.8 71 12.4
2005-01-26 12:45:33 51°16.152 2°56.506 306.4 0.7 77 12.3
2005-01-26 12:46:33 51°16.155 2°56.528 305.9 1.1 70 12.3
2005-01-26 12:47:33 51°16.16 2°56.55 310.1 0.8 74 12.5
2005-01-26 12:48:33 51°16.165 2°56.572 310.6 0.9 73 12.4
2005-01-26 12:49:34 51°16.168 2°56.595 308.4 0.9 74 12.5
2005-01-26 12:50:33 51°16.171 2°56.617 305.2 0.9 77 12.1
2005-01-26 12:51:33 51°16.174 2°56.638 302.3 0.9 74 12.6
2005-01-26 12:52:33 51°16.176 2°56.659 300.6 1 73 12.3
2005-01-26 12:53:33 51°16.189 2°56.649 298.4 2.9 308 12.4
2005-01-26 12:54:33 51°16.155 2°56.507 222.8 9.4 216 12.4
2005-01-26 12:55:34 51°15.992 2°56.336 225.7 11.8 221 11.7
2005-01-26 12:56:33 51°15.841 2°56.125 226.1 12.7 223 11.3
2005-01-26 12:57:33 51°15.691 2°55.908 223.7 12.6 218 11.1
2005-01-26 12:58:33 51°15.538 2°55.695 226.9 12.5 224 10.7
2005-01-26 12:59:33 51°15.387 2°55.484 223.5 11.6 219 10.7
2005-01-26 13:00:33 51°15.236 2°55.272 222.8 12 219 11
2005-01-26 13:01:33 51°15.081 2°55.064 223.2 12.3 219 11.7
2005-01-26 13:02:34 51°14.906 2°54.894 214.1 12.3 208 12
2005-01-26 13:03:32 51°14.717 2°54.799 202.5 11.9 192 12.5
2005-01-26 13:04:32 51°14.513 2°54.854 165.4 12.7 156 13
2005-01-26 13:05:33 51°14.359 2°55.071 133.3 12.6 126 13.5
2005-01-26 13:06:34 51°14.232 2°55.307 136.2 11.5 134 13.7
2005-01-26 13:07:32 51°14.105 2°55.427 157.6 8 155 12.7
2005-01-26 13:08:33 51°13.986 2°55.514 158.3 7.5 157 13.6
2005-01-26 13:09:32 51°13.877 2°55.6 155.3 7.4 153 13.5
2005-01-26 13:10:34 51°13.772 2°55.706 145.3 7.2 142 12.9
2005-01-26 13:11:32 51°13.691 2°55.837 131.2 6.9 127 12.6
2005-01-26 13:12:33 51°13.634 2°55.978 122.1 5.9 120 13.2
2005-01-26 13:13:32 51°13.602 2°56.079 113.5 2.9 109 11.3
2005-01-26 13:14:33 51°13.595 2°56.1 128.3 0.5 281 10.6
2005-01-26 13:15:33 51°13.594 2°56.105 125.5 0.1 35 10.6
2005-01-26 13:16:33 51°13.593 2°56.105 127 -999 172 10.5
2005-01-26 13:17:33 51°13.593 2°56.105 126.3 -999 253 10.5
2005-01-26 13:18:33 51°13.594 2°56.106 126.6 -999 352 10.5